EDDG/FMO METAR and TAF weather

Enter ICAO airport designator
Station Type Date Time Source
EDDG METAR 2021/05/14 04:50 UTC NOAA

EDDG 140450Z 28003KT 250V330 5000 BR BKN004 09/08 Q1006 TEMPO 4000 BKN006


Station Type Date Time Source
EDDG Decoded METAR 2021/05/14 04:50 UTC NOAA

Muenster / Osnabrueck, Germany (EDDG) 52-08N 007-42E 53M
May 14, 2021 - 12:50 AM EDT / 2021.05.14 0450 UTC
Wind: from the W (280 degrees) at 3 MPH (3 KT) (direction variable):0
Visibility: 3 mile(s):0
Sky conditions: mostly cloudy
Weather: mist
Temperature: 48 F (9 C)
Dew Point: 46 F (8 C)
Relative Humidity: 93%
Pressure (altimeter): 29.71 in. Hg (1006 hPa)
ob: EDDG 140450Z 28003KT 250V330 5000 BR BKN004 09/08 Q1006 TEMPO 4000 BKN006
cycle: 5

Station Type Date Time Source
EDDG TAF 2021/05/14 03:57 UTC NOAA

TAF
AMD EDDG 140350Z 1403/1424 VRB03KT 9999 SCT045
TEMPO 1403/1406 4000 BR BKN004
TEMPO 1406/1409 BKN006
BECMG 1407/1410 27006KT PROB40
TEMPO 1415/1420 SHRA BKN025CB
BECMG 1418/1420 VRB03KT

Example: see airport list